createdAt,value
2023-01-17T00:01:33.412Z,3.39
2023-01-17T00:04:18.814Z,3.40
2023-01-17T00:07:04.400Z,3.43
2023-01-17T00:09:50.976Z,3.43
2023-01-17T00:12:18.532Z,3.44
2023-01-17T00:14:47.065Z,3.46
2023-01-17T00:17:14.666Z,3.48
2023-01-17T00:19:59.996Z,3.50
2023-01-17T00:22:47.200Z,3.52
2023-01-17T00:25:41.461Z,3.53
2023-01-17T00:28:08.430Z,3.56
2023-01-17T00:30:35.209Z,3.57
2023-01-17T00:33:01.930Z,3.58
2023-01-17T00:35:29.538Z,3.59
2023-01-17T00:38:07.339Z,3.59
2023-01-17T00:40:34.900Z,3.61
2023-01-17T00:43:20.991Z,3.63
2023-01-17T00:46:06.327Z,3.66
2023-01-17T00:48:51.752Z,3.67
2023-01-17T00:51:39.483Z,3.68
2023-01-17T00:54:25.429Z,3.70
2023-01-17T00:57:10.862Z,3.71
2023-01-17T00:59:56.282Z,3.73
2023-01-17T01:02:42.258Z,3.75
2023-01-17T01:05:28.237Z,3.77
2023-01-17T01:08:13.573Z,3.79
2023-01-17T01:10:59.092Z,3.79
2023-01-17T01:13:44.852Z,3.81
2023-01-17T01:16:30.226Z,3.82
2023-01-17T01:19:16.134Z,3.83
2023-01-17T01:22:01.465Z,3.82
2023-01-17T01:24:46.742Z,3.84
2023-01-17T01:27:32.085Z,3.86
2023-01-17T01:30:17.433Z,3.88
2023-01-17T01:33:02.887Z,3.89
2023-01-17T01:35:29.763Z,3.90
2023-01-17T01:37:56.617Z,3.91
2023-01-17T01:40:23.469Z,3.92
2023-01-17T01:42:54.879Z,3.94
2023-01-17T01:45:32.245Z,3.97
2023-01-17T01:48:48.475Z,3.99
2023-01-17T01:51:19.160Z,3.99
2023-01-17T01:53:47.383Z,3.98
2023-01-17T01:56:14.408Z,3.99
2023-01-17T01:58:43.417Z,4.00
2023-01-17T02:01:11.328Z,4.02
2023-01-17T02:03:38.833Z,4.03
2023-01-17T02:10:55.395Z,4.05
2023-01-17T02:13:22.323Z,4.04
2023-01-17T02:15:56.010Z,4.06
2023-01-17T02:18:36.501Z,4.08
2023-01-17T02:21:25.228Z,4.08
2023-01-17T02:24:16.273Z,4.08
2023-01-17T02:27:01.717Z,4.10
2023-01-17T02:29:59.590Z,4.11
2023-01-17T02:32:32.587Z,4.14
2023-01-17T02:35:09.653Z,4.16
2023-01-17T02:37:56.166Z,4.18
2023-01-17T02:40:34.758Z,4.20
2023-01-17T02:43:05.684Z,4.20
2023-01-17T02:45:32.643Z,4.20
2023-01-17T02:47:59.594Z,4.22
2023-01-17T02:50:50.508Z,4.24
2023-01-17T02:53:45.878Z,4.26
2023-01-17T02:56:28.990Z,4.27
2023-01-17T02:59:17.626Z,4.27
2023-01-17T03:02:13.336Z,4.28
2023-01-17T03:04:50.103Z,4.29
2023-01-17T03:07:19.808Z,4.27
2023-01-17T03:09:47.911Z,4.27
2023-01-17T03:12:14.838Z,4.27
2023-01-17T03:14:41.810Z,4.26
2023-01-17T03:17:09.132Z,4.26
2023-01-17T03:19:36.103Z,4.27
2023-01-17T03:22:03.408Z,4.26
2023-01-17T03:24:30.742Z,4.25
2023-01-17T03:26:57.668Z,4.25
2023-01-17T03:29:24.685Z,4.24
2023-01-17T03:31:52.436Z,4.24
2023-01-17T03:34:19.299Z,4.24
2023-01-17T03:36:46.309Z,4.24
2023-01-17T03:39:13.266Z,4.24
2023-01-17T03:41:40.425Z,4.25
2023-01-17T03:44:07.543Z,4.25
2023-01-17T03:46:34.512Z,4.27
2023-01-17T03:49:01.693Z,4.28
2023-01-17T03:51:30.568Z,4.29
2023-01-17T03:54:01.316Z,4.29
2023-01-17T03:56:31.312Z,4.30
2023-01-17T03:59:01.558Z,4.30
2023-01-17T04:01:31.380Z,4.30
2023-01-17T04:04:01.323Z,4.32
2023-01-17T04:06:31.398Z,4.34
2023-01-17T04:09:01.304Z,4.34
2023-01-17T04:11:31.844Z,4.33
2023-01-17T04:14:01.270Z,4.33
2023-01-17T04:16:31.783Z,4.32
2023-01-17T04:19:01.464Z,4.33
2023-01-17T04:21:31.352Z,4.34
2023-01-17T04:24:01.334Z,4.34
2023-01-17T04:26:32.351Z,4.35
2023-01-17T04:29:02.220Z,4.35
2023-01-17T04:31:32.076Z,4.35
2023-01-17T04:34:01.385Z,4.34
2023-01-17T04:36:31.251Z,4.35
2023-01-17T04:39:02.479Z,4.35
2023-01-17T04:41:32.411Z,4.35
2023-01-17T04:44:02.041Z,4.34
2023-01-17T04:46:30.793Z,4.35
2023-01-17T04:49:01.407Z,4.36
2023-01-17T04:59:22.049Z,4.43
2023-01-17T05:01:49.045Z,4.42
2023-01-17T05:04:15.876Z,4.45
2023-01-17T05:06:44.125Z,4.46
2023-01-17T05:09:10.988Z,4.49
2023-01-17T05:11:37.890Z,4.50
2023-01-17T05:14:04.631Z,4.51
2023-01-17T05:16:31.781Z,4.50
2023-01-17T05:18:58.999Z,4.51
2023-01-17T05:21:26.267Z,4.51
2023-01-17T05:23:53.419Z,4.52
2023-01-17T05:26:22.655Z,4.53
2023-01-17T05:28:50.072Z,4.55
2023-01-17T05:31:17.253Z,4.57
2023-01-17T05:33:43.991Z,4.58
2023-01-17T05:36:10.724Z,4.60
2023-01-17T05:38:37.742Z,4.62
2023-01-17T05:41:04.958Z,4.62
2023-01-17T05:43:32.149Z,4.63
2023-01-17T05:45:58.880Z,4.65
2023-01-17T05:48:25.571Z,4.65
2023-01-17T05:50:52.248Z,4.66
2023-01-17T05:53:18.873Z,4.68
2023-01-17T05:55:47.054Z,4.69
2023-01-17T05:58:17.532Z,4.70
2023-01-17T06:00:44.237Z,4.70
2023-01-17T06:03:13.693Z,4.70
2023-01-17T06:05:42.596Z,4.70
2023-01-17T06:08:10.357Z,4.70
2023-01-17T06:10:37.186Z,4.72
2023-01-17T06:13:06.597Z,4.74
2023-01-17T06:15:35.015Z,4.75
2023-01-17T06:18:09.590Z,4.76
2023-01-17T06:20:36.866Z,4.77
2023-01-17T06:23:04.635Z,4.79
2023-01-17T06:25:38.623Z,4.81
2023-01-17T06:28:06.381Z,4.83
2023-01-17T06:30:33.615Z,4.84
2023-01-17T06:33:00.879Z,4.85
2023-01-17T06:35:27.894Z,4.87
2023-01-17T06:37:57.485Z,4.89
2023-01-17T06:40:25.096Z,4.90
2023-01-17T06:42:51.945Z,4.90
2023-01-17T06:45:19.230Z,4.91
2023-01-17T06:47:46.234Z,4.92
2023-01-17T06:50:14.207Z,4.93
2023-01-17T06:52:41.362Z,4.93
2023-01-17T06:55:08.985Z,4.94
2023-01-17T06:57:36.779Z,4.96
2023-01-17T07:00:04.537Z,4.97
2023-01-17T07:02:31.406Z,4.97
2023-01-17T07:04:58.333Z,4.98
2023-01-17T07:07:25.893Z,5.00
2023-01-17T07:09:54.988Z,5.02
2023-01-17T07:12:21.837Z,5.04
2023-01-17T07:14:48.993Z,5.08
2023-01-17T07:17:15.792Z,5.11
2023-01-17T07:19:44.359Z,5.11
2023-01-17T07:22:11.459Z,5.12
2023-01-17T07:24:38.298Z,5.13
2023-01-17T07:27:06.811Z,5.14
2023-01-17T07:29:34.031Z,5.17
2023-01-17T07:32:02.653Z,5.21
2023-01-17T07:34:29.458Z,5.24
2023-01-17T07:36:57.335Z,5.25
2023-01-17T07:39:24.285Z,5.27
2023-01-17T07:41:51.114Z,5.28
2023-01-17T07:44:19.394Z,5.28
2023-01-17T07:46:46.354Z,5.27
2023-01-17T07:49:14.031Z,5.27
2023-01-17T07:51:41.045Z,5.27
2023-01-17T07:54:07.764Z,5.27
2023-01-17T07:56:35.551Z,5.29
2023-01-17T07:59:02.701Z,5.32
2023-01-17T08:01:29.884Z,5.34
2023-01-17T08:04:09.437Z,5.35
2023-01-17T08:14:16.510Z,5.40
2023-01-17T08:16:43.384Z,5.38
2023-01-17T08:19:10.620Z,5.39
2023-01-17T08:21:37.716Z,5.38
2023-01-17T08:24:05.022Z,5.37
2023-01-17T08:26:31.961Z,5.34
2023-01-17T08:29:00.570Z,5.33
2023-01-17T08:31:28.784Z,5.31
2023-01-17T08:33:56.715Z,5.31
2023-01-17T08:36:25.933Z,5.29
2023-01-17T08:38:53.356Z,5.26
2023-01-17T08:41:21.129Z,5.24
2023-01-17T08:43:49.093Z,5.22
2023-01-17T08:46:16.447Z,5.20
2023-01-17T08:48:43.775Z,5.19
2023-01-17T08:51:11.252Z,5.19
2023-01-17T08:53:38.196Z,5.17
2023-01-17T08:56:06.576Z,5.14
2023-01-17T08:58:35.132Z,5.13
2023-01-17T09:01:03.268Z,5.11
2023-01-17T09:03:31.406Z,5.10
2023-01-17T09:06:05.561Z,5.10
2023-01-17T09:08:33.298Z,5.09
2023-01-17T09:11:05.058Z,5.08
2023-01-17T09:13:32.087Z,5.07
2023-01-17T09:15:59.361Z,5.08
2023-01-17T09:18:26.910Z,5.07
2023-01-17T09:20:59.337Z,5.06
2023-01-17T09:23:27.346Z,5.06
2023-01-17T09:25:55.324Z,5.07
2023-01-17T09:28:22.371Z,5.07
2023-01-17T09:30:49.448Z,5.07
2023-01-17T09:33:16.727Z,5.07
2023-01-17T09:35:44.646Z,5.07
2023-01-17T09:38:12.089Z,5.07
2023-01-17T09:40:43.996Z,5.08
2023-01-17T09:43:44.591Z,5.08
2023-01-17T09:46:22.809Z,5.10
2023-01-17T09:49:13.107Z,5.11
2023-01-17T09:51:40.032Z,5.12
2023-01-17T09:54:29.281Z,5.14
2023-01-17T09:57:24.570Z,5.15
2023-01-17T10:00:03.212Z,5.17
2023-01-17T10:02:52.524Z,5.19
2023-01-17T10:05:28.869Z,5.21
2023-01-17T10:08:11.678Z,5.22
2023-01-17T10:10:57.864Z,5.23
2023-01-17T10:13:40.289Z,5.24
2023-01-17T10:16:44.647Z,5.25
2023-01-17T10:19:29.980Z,5.25
2023-01-17T10:22:15.386Z,5.25
2023-01-17T10:25:16.120Z,5.25
2023-01-17T10:27:59.325Z,5.25
2023-01-17T10:30:32.535Z,5.25
2023-01-17T10:32:59.614Z,5.26
2023-01-17T10:35:29.899Z,5.28
2023-01-17T10:37:57.449Z,5.29
2023-01-17T10:40:42.937Z,5.31
2023-01-17T10:43:12.762Z,5.33
2023-01-17T10:45:48.964Z,5.34
2023-01-17T10:48:23.135Z,5.35
2023-01-17T10:50:56.774Z,5.34
2023-01-17T10:53:43.850Z,5.33
2023-01-17T10:56:13.058Z,5.32
2023-01-17T10:58:39.909Z,5.31
2023-01-17T11:01:13.295Z,5.31
2023-01-17T11:03:40.235Z,5.32
2023-01-17T11:06:20.814Z,5.33
2023-01-17T11:08:58.195Z,5.34
2023-01-17T11:11:30.236Z,5.37
2023-01-17T11:13:58.230Z,5.40
2023-01-17T11:16:27.548Z,5.43
2023-01-17T11:19:08.746Z,5.47
2023-01-17T11:21:37.567Z,5.50
2023-01-17T11:24:12.256Z,5.52
2023-01-17T11:26:39.274Z,5.52
2023-01-17T11:29:31.265Z,5.52
2023-01-17T11:31:58.465Z,5.52
2023-01-17T11:34:27.023Z,5.52
2023-01-17T11:37:19.578Z,5.52
2023-01-17T11:39:48.353Z,5.53
2023-01-17T11:42:33.771Z,5.54
2023-01-17T11:45:26.940Z,5.56
2023-01-17T11:48:09.343Z,5.58
2023-01-17T11:50:37.780Z,5.58
2023-01-17T11:53:28.149Z,5.59
2023-01-17T11:56:21.439Z,5.60
2023-01-17T11:58:48.431Z,5.61
2023-01-17T12:01:47.895Z,5.62
2023-01-17T12:04:24.887Z,5.63
2023-01-17T12:07:15.011Z,5.65
2023-01-17T12:09:54.757Z,5.68
2023-01-17T12:12:47.593Z,5.71
2023-01-17T12:15:23.612Z,5.73
2023-01-17T12:17:53.453Z,5.76
2023-01-17T12:20:53.210Z,5.80
2023-01-17T12:23:37.207Z,5.81
2023-01-17T12:26:19.924Z,5.82
2023-01-17T12:28:57.413Z,5.82
2023-01-17T12:31:52.606Z,5.82
2023-01-17T12:34:26.224Z,5.82
2023-01-17T12:36:54.802Z,5.82
2023-01-17T12:39:26.159Z,5.81
2023-01-17T12:41:58.510Z,5.81
2023-01-17T12:44:47.270Z,5.80
2023-01-17T12:47:14.076Z,5.81
2023-01-17T12:50:03.378Z,5.80
2023-01-17T12:52:59.501Z,5.81
2023-01-17T12:55:29.887Z,5.81
2023-01-17T12:57:57.660Z,5.82
2023-01-17T13:00:25.673Z,5.82
2023-01-17T13:03:04.855Z,5.84
2023-01-17T13:05:33.285Z,5.86
2023-01-17T13:08:06.781Z,5.88
2023-01-17T13:10:37.561Z,5.90
2023-01-17T13:13:20.344Z,5.92
2023-01-17T13:15:47.313Z,5.92
2023-01-17T13:18:15.861Z,5.93
2023-01-17T13:21:06.784Z,5.95
2023-01-17T13:23:42.844Z,5.97
2023-01-17T13:26:18.077Z,5.97
2023-01-17T13:29:06.130Z,5.99
2023-01-17T13:31:48.436Z,6.00
2023-01-17T13:34:29.521Z,6.02
2023-01-17T13:37:22.651Z,6.03
2023-01-17T13:40:23.738Z,6.03
2023-01-17T13:43:01.158Z,6.02
2023-01-17T13:45:33.471Z,5.98
2023-01-17T13:48:12.793Z,5.93
2023-01-17T13:50:55.676Z,5.90
2023-01-17T13:53:28.715Z,5.89
2023-01-17T13:56:18.095Z,5.90
2023-01-17T13:58:50.055Z,5.92
2023-01-17T14:01:23.242Z,5.94
2023-01-17T14:03:50.441Z,5.97
2023-01-17T14:06:36.158Z,6.00
2023-01-17T14:09:18.539Z,6.03
2023-01-17T14:12:05.190Z,6.06
2023-01-17T14:14:44.565Z,6.10
2023-01-17T14:17:18.023Z,6.13
2023-01-17T14:19:52.255Z,6.16
2023-01-17T14:22:19.225Z,6.18
2023-01-17T14:25:12.256Z,6.19
2023-01-17T14:28:52.602Z,6.20
2023-01-17T14:38:59.492Z,6.23
2023-01-17T14:41:28.007Z,6.22
2023-01-17T14:43:55.166Z,6.23
2023-01-17T14:46:32.400Z,6.23
2023-01-17T14:49:19.368Z,6.24
2023-01-17T14:52:01.931Z,6.26
2023-01-17T14:54:28.991Z,6.28
2023-01-17T14:57:22.064Z,6.30
2023-01-17T14:59:49.052Z,6.34
2023-01-17T15:02:16.662Z,6.36
2023-01-17T15:04:44.146Z,6.38
2023-01-17T15:07:15.901Z,6.43
2023-01-17T15:09:43.050Z,6.47
2023-01-17T15:12:11.146Z,6.51
2023-01-17T15:14:39.361Z,6.56
2023-01-17T15:17:18.732Z,6.61
2023-01-17T15:19:49.775Z,6.64
2023-01-17T15:22:16.722Z,6.68
2023-01-17T15:24:44.730Z,6.71
2023-01-17T15:27:14.018Z,6.76
2023-01-17T15:29:41.038Z,6.80
2023-01-17T15:32:07.978Z,6.83
2023-01-17T15:34:36.689Z,6.86
2023-01-17T15:37:08.631Z,6.89
2023-01-17T15:39:37.592Z,6.93
2023-01-17T15:42:15.115Z,6.96
2023-01-17T15:44:48.683Z,6.99
2023-01-17T15:47:38.073Z,7.03
2023-01-17T15:50:21.012Z,7.07
2023-01-17T15:52:49.453Z,7.11
2023-01-17T15:55:24.535Z,7.13
2023-01-17T15:57:51.430Z,7.16
2023-01-17T16:00:37.823Z,7.20
2023-01-17T16:03:36.260Z,7.24
2023-01-17T16:06:04.670Z,7.28
2023-01-17T16:08:39.999Z,7.31
2023-01-17T16:11:08.111Z,7.34
2023-01-17T16:13:39.316Z,7.38
2023-01-17T16:16:31.248Z,7.41
2023-01-17T16:19:00.841Z,7.44
2023-01-17T16:21:29.614Z,7.48
2023-01-17T16:23:56.687Z,7.51
2023-01-17T16:26:23.773Z,7.54
2023-01-17T16:28:51.430Z,7.56
2023-01-17T16:31:18.399Z,7.58
2023-01-17T16:33:46.189Z,7.58
2023-01-17T16:36:14.946Z,7.59
2023-01-17T16:38:43.564Z,7.60
2023-01-17T16:41:10.761Z,7.62
2023-01-17T16:43:37.640Z,7.64
2023-01-17T16:46:04.556Z,7.66
2023-01-17T16:48:31.365Z,7.69
2023-01-17T16:50:59.398Z,7.70
2023-01-17T16:53:27.320Z,7.72
2023-01-17T16:55:56.811Z,7.75
2023-01-17T16:58:23.735Z,7.77
2023-01-17T17:00:50.604Z,7.79
2023-01-17T17:03:18.446Z,7.81
2023-01-17T17:05:47.291Z,7.82
2023-01-17T17:08:15.597Z,7.84
2023-01-17T17:10:42.430Z,7.84
2023-01-17T17:13:09.310Z,7.85
2023-01-17T17:15:41.196Z,7.86
2023-01-17T17:18:12.970Z,7.87
2023-01-17T17:20:39.804Z,7.88
2023-01-17T17:23:06.581Z,7.89
2023-01-17T17:25:33.412Z,7.91
2023-01-17T17:28:00.197Z,7.92
2023-01-17T17:30:27.433Z,7.93
2023-01-17T17:32:54.210Z,7.94
2023-01-17T17:35:21.011Z,7.96
2023-01-17T17:37:47.832Z,7.96
2023-01-17T17:40:14.927Z,7.96
2023-01-17T17:42:42.802Z,7.96
2023-01-17T17:45:10.176Z,7.96
2023-01-17T17:47:37.098Z,7.95
2023-01-17T17:50:04.202Z,7.95
2023-01-17T17:52:37.799Z,7.97
2023-01-17T17:55:05.086Z,7.97
2023-01-17T17:57:32.209Z,7.98
2023-01-17T17:59:59.855Z,7.98
2023-01-17T18:02:26.756Z,7.99
2023-01-17T18:04:53.811Z,7.99
2023-01-17T18:07:21.510Z,7.98
2023-01-17T18:09:50.158Z,7.97
2023-01-17T18:12:17.864Z,7.96
2023-01-17T18:14:44.783Z,7.96
2023-01-17T18:17:15.203Z,7.94
2023-01-17T18:19:43.062Z,7.95
2023-01-17T18:22:10.144Z,7.96
2023-01-17T18:24:38.601Z,7.96
2023-01-17T18:27:06.966Z,7.97
2023-01-17T18:29:35.464Z,7.98
2023-01-17T18:32:03.111Z,7.98
2023-01-17T18:34:30.107Z,7.98
2023-01-17T18:36:57.706Z,7.97
2023-01-17T18:39:29.183Z,7.97
2023-01-17T18:42:23.445Z,7.97
2023-01-17T18:44:54.995Z,7.97
2023-01-17T18:47:31.123Z,7.96
2023-01-17T18:49:59.181Z,7.96
2023-01-17T18:52:27.513Z,7.96
2023-01-17T18:54:57.113Z,7.95
2023-01-17T18:57:27.523Z,7.94
2023-01-17T19:00:03.997Z,7.92
2023-01-17T19:02:31.258Z,7.91
2023-01-17T19:04:58.164Z,7.91
2023-01-17T19:07:31.596Z,7.90
2023-01-17T19:09:58.392Z,7.90
2023-01-17T19:12:25.375Z,7.90
2023-01-17T19:14:52.431Z,7.91
2023-01-17T19:17:19.876Z,7.90
2023-01-17T19:19:46.688Z,7.92
2023-01-17T19:22:13.884Z,7.93
2023-01-17T19:24:40.825Z,7.92
2023-01-17T19:27:07.753Z,7.92
2023-01-17T19:29:34.593Z,7.93
2023-01-17T19:32:01.639Z,7.95
2023-01-17T19:34:28.428Z,7.97
2023-01-17T19:36:56.352Z,7.97
2023-01-17T19:39:25.710Z,7.99
2023-01-17T19:41:52.543Z,8.01
2023-01-17T19:44:19.328Z,8.02
2023-01-17T19:46:47.206Z,8.02
2023-01-17T19:49:19.795Z,8.02
2023-01-17T19:51:46.856Z,8.03
2023-01-17T19:54:15.425Z,8.04
2023-01-17T19:56:42.430Z,8.04
2023-01-17T19:59:09.361Z,8.04
2023-01-17T20:01:36.532Z,8.04
2023-01-17T20:04:05.120Z,8.06
2023-01-17T20:06:35.020Z,8.07
2023-01-17T20:09:02.923Z,8.07
2023-01-17T20:11:30.185Z,8.07
2023-01-17T20:13:59.150Z,8.08
2023-01-17T20:16:27.994Z,8.08
2023-01-17T20:18:55.077Z,8.07
2023-01-17T20:21:23.571Z,8.08
2023-01-17T20:23:52.715Z,8.09
2023-01-17T20:26:21.720Z,8.10
2023-01-17T20:28:50.036Z,8.11
2023-01-17T20:31:25.089Z,8.11
2023-01-17T20:33:56.132Z,8.11
2023-01-17T20:36:25.641Z,8.10
2023-01-17T20:38:54.955Z,8.10
2023-01-17T20:41:26.612Z,8.10
2023-01-17T20:43:55.206Z,8.11
2023-01-17T20:46:24.234Z,8.12
2023-01-17T20:48:52.919Z,8.13
2023-01-17T20:51:21.089Z,8.13
2023-01-17T20:53:51.568Z,8.13
2023-01-17T20:56:19.019Z,8.12
2023-01-17T20:58:45.880Z,8.13
2023-01-17T21:01:20.072Z,8.12
2023-01-17T21:03:51.216Z,8.12
2023-01-17T21:06:18.334Z,8.13
2023-01-17T21:08:45.736Z,8.13
2023-01-17T21:11:15.363Z,8.13
2023-01-17T21:13:42.605Z,8.13
2023-01-17T21:16:10.603Z,8.14
2023-01-17T21:18:37.470Z,8.14
2023-01-17T21:21:09.543Z,8.14
2023-01-17T21:23:38.567Z,8.15
2023-01-17T21:26:06.625Z,8.15
2023-01-17T21:28:38.833Z,8.15
2023-01-17T21:31:23.512Z,8.16
2023-01-17T21:40:06.096Z,8.18
2023-01-17T21:42:33.246Z,8.16
2023-01-17T21:45:01.001Z,8.17
2023-01-17T21:47:29.180Z,8.16
2023-01-17T21:49:56.293Z,8.16
2023-01-17T21:52:23.198Z,8.15
2023-01-17T21:55:09.015Z,8.16
2023-01-17T21:57:55.280Z,8.16
2023-01-17T22:00:23.428Z,8.15
2023-01-17T22:02:50.553Z,8.14
2023-01-17T22:05:18.714Z,8.13
2023-01-17T22:08:05.493Z,8.13
2023-01-17T22:10:33.227Z,8.13
2023-01-17T22:13:00.111Z,8.13
2023-01-17T22:15:26.987Z,8.13
2023-01-17T22:17:53.844Z,8.11
2023-01-17T22:20:21.990Z,8.11
2023-01-17T22:22:49.372Z,8.10
2023-01-17T22:25:16.523Z,8.09
2023-01-17T22:27:43.384Z,8.08
2023-01-17T22:30:13.179Z,8.07
2023-01-17T22:32:40.096Z,8.06
2023-01-17T22:35:07.401Z,8.04
2023-01-17T22:37:34.903Z,8.02
2023-01-17T22:40:04.887Z,8.01
2023-01-17T22:42:34.967Z,7.99
2023-01-17T22:45:08.298Z,7.97
2023-01-17T22:47:36.089Z,7.97
2023-01-17T22:50:06.026Z,7.96
2023-01-17T22:52:35.915Z,7.93
2023-01-17T22:55:28.131Z,7.92
2023-01-17T22:58:02.336Z,7.91
2023-01-17T23:00:40.334Z,7.90
2023-01-17T23:03:10.408Z,7.89
2023-01-17T23:05:46.654Z,7.90
2023-01-17T23:08:15.065Z,7.89
2023-01-17T23:11:01.279Z,7.89
2023-01-17T23:13:28.606Z,7.88
2023-01-17T23:16:14.125Z,7.89
2023-01-17T23:19:00.109Z,7.88
2023-01-17T23:21:47.216Z,7.88
2023-01-17T23:24:14.446Z,7.88
2023-01-17T23:27:01.149Z,7.88
2023-01-17T23:29:28.209Z,7.88
2023-01-17T23:31:55.460Z,7.87
2023-01-17T23:34:22.377Z,7.86
2023-01-17T23:36:49.363Z,7.85
2023-01-17T23:39:16.085Z,7.85
2023-01-17T23:42:02.626Z,7.84
2023-01-17T23:44:32.306Z,7.84
2023-01-17T23:47:00.258Z,7.82
2023-01-17T23:49:29.646Z,7.82
2023-01-17T23:51:56.545Z,7.82
2023-01-17T23:54:23.321Z,7.82
2023-01-17T23:56:50.379Z,7.82
